Latest Coastal Weather Observations for Coles Point

IDS60701

Issued at 11:51 am CST Friday 28 August 2015 (issued every 10 minutes, with the page automatically refreshed every 10 minutes)

About coastal observations | Map of coastal stations | Coastal observations for SA | Marine services | Other Formats
Station Details ID: 018191 Name: COLES POINT Lat: -34.37 Lon: 135.37 Height: 28.0 m
Data from the previous 72 hours. | See also: Recent months at Coles Point
Date/Time
CST
Temp

°C
Wind Pressure Rain
since 9am
mm
Weather Cloud Vis
km
Sea
Height
m
Swell
Dir
 
Speed
knots
Gust
knots
hPa Trend Height
m
Period
s
Dir
28/11:30am 11.7 ESE 9 11 1030.1 - 0.0 - - - - - - -
28/11:00am 12.8 SE 8 12 1030.2 - 0.0 - - - - - - -
28/10:30am 12.9 SE 4 8 1030.4 - 0.0 - - - - - - -
28/10:00am 12.3 ENE 6 9 1030.6 - 0.0 - - - - - - -
28/09:30am 11.5 NE 4 5 1030.6 - 0.0 - - - - - - -
28/09:00am 10.9 NE 1 3 1030.6 - 0.0 - - - - - - -
28/08:30am 10.2 ENE 4 5 1030.5 - 0.0 - - - - - - -
28/08:00am 8.9 SE 3 4 1030.4 - 0.0 - - - - - - -
28/07:30am 8.5 SE 7 8 1030.0 - 0.0 - - - - - - -
28/07:00am 7.8 SE 5 6 1029.7 - 0.0 - - - - - - -
28/06:30am 7.4 ENE 4 5 1029.5 - 0.0 - - - - - - -
28/06:00am 6.8 ENE 4 5 1029.5 - 0.0 - - - - - - -
28/05:30am 4.8 SE 3 5 1029.4 - 0.0 - - - - - - -
28/05:00am 5.3 SE 6 7 1029.2 - 0.0 - - - - - - -
28/04:30am 6.0 SE 6 7 1029.1 - 0.0 - - - - - - -
28/04:00am 6.7 SE 7 7 1029.0 - 0.0 - - - - - - -
28/03:30am 7.0 E 6 7 1029.1 - 0.0 - - - - - - -
28/03:00am 7.5 ENE 5 6 1029.4 - 0.0 - - - - - - -
28/02:30am 7.8 NE 5 5 1029.6 - 0.0 - - - - - - -
28/02:00am 8.9 NE 5 7 1029.9 - 0.0 - - - - - - -
28/01:30am 7.5 ESE 5 5 1029.9 - 0.0 - - - - - - -
28/01:00am 6.0 SSE 4 5 1029.9 - 0.0 - - - - - - -
28/12:30am 6.2 SE 4 4 1029.7 - 0.0 - - - - - - -
28/12:00am 6.7 SE 7 7 1029.6 - 0.0 - - - - - - -
 
Date/Time
CST
Temp

°C
Wind Pressure Rain
since 9am
mm
Weather Cloud Vis
km
Sea
Height
m
Swell
Dir
 
Speed
knots
Gust
knots
hPa Trend Height
m
Period
s
Dir
27/11:30pm 5.9 SE 6 7 1029.7 - 0.0 - - - - - - -
27/11:00pm 6.1 SE 4 5 1029.9 - 0.0 - - - - - - -
27/10:30pm 6.4 SE 3 3 1030.0 - 0.0 - - - - - - -
27/10:00pm 6.2 SE 3 4 1030.0 - 0.0 - - - - - - -
27/09:30pm 7.1 SE 2 3 1029.9 - 0.0 - - - - - - -
27/09:00pm 7.2 SE 4 5 1029.6 - 0.0 - - - - - - -
27/08:30pm 8.4 SE 5 6 1029.5 - 0.0 - - - - - - -
27/08:00pm 8.9 SSE 6 7 1029.4 - 0.0 - - - - - - -
27/07:30pm 9.2 SE 5 6 1029.3 - 0.0 - - - - - - -
27/07:00pm 9.8 SE 7 9 1029.2 - 0.0 - - - - - - -
27/06:30pm 10.2 SE 9 14 1029.0 - 0.0 - - - - - - -
27/06:00pm 10.5 SSE 8 10 1028.6 - 0.0 - - - - - - -
27/05:30pm 11.7 S 10 13 1028.2 - 0.0 - - - - - - -
27/05:00pm 12.5 S 13 16 1027.9 - 0.0 - - - - - - -
27/04:30pm 13.2 S 13 16 1027.6 - 0.0 - - - - - - -
27/04:00pm 13.3 S 12 16 1027.5 - 0.0 - - - - - - -
27/03:30pm 13.7 S 12 16 1027.3 - 0.0 - - - - - - -
27/03:00pm 14.1 S 11 14 1027.2 - 0.0 - - - - - - -
27/02:30pm 14.7 S 10 15 1027.1 - 0.0 - - - - - - -
27/02:00pm 14.3 SSW 12 15 1027.2 - 0.0 - - - - - - -
27/01:30pm 14.1 SSW 11 14 1027.5 - 0.0 - - - - - - -
27/01:00pm 14.0 SW 10 14 1027.8 - 0.0 - - - - - - -
27/12:30pm 13.9 S 9 12 1028.1 - 0.0 - - - - - - -
27/12:00pm 13.9 S 9 13 1028.2 - 0.0 - - - - - - -
27/11:30am 13.1 SSW 8 11 1028.5 - 0.0 - - - - - - -
27/11:00am 12.4 S 8 10 1028.6 - 0.0 - - - - - - -
27/10:30am 12.8 SSW 6 8 1028.6 - 0.0 - - - - - - -
27/10:00am 12.1 SW 8 12 1028.5 - 0.0 - - - - - - -
27/09:30am 12.0 S 7 10 1028.4 - 0.0 - - - - - - -
27/09:00am 11.1 SSE 5 6 1028.2 - 1.4 Recent precip. - - - - - -
27/08:30am 11.3 SSE 4 6 1028.0 - 1.0 - - - - - - -
27/08:00am 10.4 S 4 5 1027.8 - 1.0 - - - - - - -
27/07:30am 9.7 S 5 6 1027.4 - 1.0 - - - - - - -
27/07:00am 9.0 S 5 7 1026.9 - 1.0 - - - - - - -
27/06:30am 9.0 S 5 8 1026.7 - 1.0 - - - - - - -
27/06:00am 7.9 CALM 0 0 1026.3 - 1.0 - - - - - - -
27/05:30am 7.1 E 2 3 1026.0 - 1.0 - - - - - - -
27/05:00am 6.4 CALM 0 0 1025.8 - 1.0 - - - - - - -
27/04:30am 5.6 E 2 2 1025.5 - 1.0 - - - - - - -
27/04:00am 6.9 E 5 6 1025.5 - 1.0 - - - - - - -
27/03:30am 7.9 SE 1 3 1025.5 - 1.0 - - - - - - -
27/03:00am 7.5 SE 4 6 1025.9 - 1.0 Recent precip. - - - - - -
27/02:30am 6.0 CALM 0 0 1025.9 - 0.8 - - - - - - -
27/02:00am 4.5 CALM 0 1 1025.9 - 0.8 - - - - - - -
27/01:30am 4.9 CALM 0 0 1025.9 - 0.8 - - - - - - -
27/01:00am 5.4 CALM 0 2 1026.1 - 0.8 - - - - - - -
27/12:30am 4.5 E 1 2 1026.1 - 0.8 - - - - - - -
27/12:00am 4.2 SSE 1 2 1026.0 - 0.8 - - - - - - -
 
Date/Time
CST
Temp

°C
Wind Pressure Rain
since 9am
mm
Weather Cloud Vis
km
Sea
Height
m
Swell
Dir
 
Speed
knots
Gust
knots
hPa Trend Height
m
Period
s
Dir
26/11:30pm 4.7 SSE 1 2 1026.1 - 0.8 - - - - - - -
26/11:00pm 4.7 CALM 0 2 1026.4 - 0.8 - - - - - - -
26/10:30pm 5.0 CALM 0 0 1026.5 - 0.8 - - - - - - -
26/10:00pm 6.2 SSE 1 2 1026.5 - 0.8 - - - - - - -
26/09:30pm 6.7 SSE 1 2 1026.4 - 0.8 - - - - - - -
26/09:00pm 7.1 CALM 0 0 1026.3 - 0.8 - - - - - - -
26/08:30pm 6.1 ESE 3 3 1026.2 - 0.8 - - - - - - -
26/08:00pm 5.7 ESE 2 3 1026.0 - 0.8 - - - - - - -
26/07:30pm 6.4 CALM 0 0 1025.8 - 0.8 - - - - - - -
26/07:00pm 7.5 ESE 3 3 1025.7 - 0.8 - - - - - - -
26/06:30pm 8.1 ESE 3 3 1025.5 - 0.8 - - - - - - -
26/06:00pm 9.3 ESE 3 4 1025.1 - 0.8 Recent precip. - - - - - -
26/05:30pm 10.9 SE 5 6 1024.9 - 0.8 - - - - - - -
26/05:00pm 12.2 WSW 4 6 1024.6 - 0.6 - - - - - - -
26/04:30pm 12.4 W 4 5 1024.5 - 0.6 - - - - - - -
26/04:00pm 11.8 W 4 6 1024.5 - 0.6 - - - - - - -
26/03:30pm 12.3 WSW 3 5 1024.4 - 0.6 - - - - - - -
26/03:00pm 11.7 WSW 4 5 1024.6 - 0.6 - - - - - - -
26/02:30pm 11.6 SSW 3 4 1024.8 - 0.6 - - - - - - -
26/02:00pm 11.4 SW 6 9 1024.9 - 0.6 - - - - - - -
26/01:30pm 11.5 S 3 5 1025.1 - 0.6 - - - - - - -
26/01:00pm 11.1 SSE 11 13 1025.4 - 0.0 - - - - - - -
26/12:30pm 11.8 SSE 4 6 1025.7 - 0.0 - - - - - - -
26/12:00pm 11.6 S 5 7 1026.2 - 0.0 - - - - - - -
26/11:30am 12.1 SW 6 7 1026.2 - 0.0 - - - - - - -
26/11:00am 11.7 SW 6 7 1026.3 - 0.0 - - - - - - -
26/10:30am 12.0 SW 5 8 1026.5 - 0.0 - - - - - - -
26/10:00am 11.8 SSE 3 5 1026.5 - 0.0 - - - - - - -
26/09:30am 11.7 SSE 3 4 1026.6 - 0.0 - - - - - - -
26/09:00am 10.5 SSE 3 4 1026.5 - 0.6 - - - - - - -
26/08:30am 9.3 SE 5 7 1026.5 - 0.6 - - - - - - -
26/08:00am 8.6 SE 5 7 1026.5 - 0.6 - - - - - - -
26/07:30am 5.4 ESE 5 6 1026.4 - 0.6 - - - - - - -
26/07:00am 4.2 SSE 1 2 1026.2 - 0.6 - - - - - - -
26/06:30am 5.4 SE 1 3 1026.1 - 0.6 - - - - - - -
26/06:00am 5.6 CALM 0 0 1026.0 - 0.6 - - - - - - -
26/05:30am 6.9 SE 4 5 1026.1 - 0.6 - - - - - - -
26/05:00am 7.7 SSE 1 5 1026.2 - 0.6 - - - - - - -
26/04:30am 8.3 SE 6 7 1026.3 - 0.6 - - - - - - -
26/04:00am 7.3 NNE 3 4 1026.4 - 0.6 - - - - - - -
26/03:30am 7.3 NNE 2 3 1026.4 - 0.6 - - - - - - -
26/03:00am 7.7 ENE 4 5 1026.7 - 0.6 - - - - - - -
26/02:30am 8.4 NNE 4 5 1026.8 - 0.6 - - - - - - -
26/02:00am 8.5 ENE 3 5 1027.1 - 0.6 - - - - - - -
26/01:30am 8.4 ENE 3 3 1027.3 - 0.6 - - - - - - -
26/01:00am 8.6 E 4 6 1027.6 - 0.6 - - - - - - -
26/12:30am 8.6 ENE 4 5 1027.6 - 0.6 - - - - - - -
26/12:00am 8.2 ENE 3 4 1027.9 - 0.6 - - - - - - -
 
Date/Time
CST
Temp

°C
Wind Pressure Rain
since 9am
mm
Weather Cloud Vis
km
Sea
Height
m
Swell
Dir
 
Speed
knots
Gust
knots
hPa Trend Height
m
Period
s
Dir
25/11:30pm 8.2 ENE 5 7 1027.9 - 0.6 - - - - - - -
25/11:00pm 7.0 ENE 5 10 1028.0 - 0.6 - - - - - - -
25/10:30pm 6.4 E 4 5 1028.2 - 0.6 - - - - - - -
25/10:00pm 6.5 SE 4 5 1028.4 - 0.6 - - - - - - -
25/09:30pm 7.1 SE 6 6 1028.2 - 0.6 - - - - - - -
25/09:00pm 8.2 ESE 5 7 1028.3 - 0.6 - - - - - - -
25/08:30pm 8.5 SE 6 8 1028.1 - 0.6 - - - - - - -
25/08:00pm 9.1 SE 8 10 1028.0 - 0.6 - - - - - - -
25/07:30pm 9.1 SSE 4 6 1027.9 - 0.6 - - - - - - -
25/07:00pm 7.8 SE 5 6 1027.9 - 0.6 - - - - - - -
25/06:30pm 8.5 SE 4 5 1027.7 - 0.4 - - - - - - -
25/06:00pm 9.3 SE 4 5 1027.6 - 0.4 Rain - - - - - -
25/05:30pm 10.2 S 2 3 1027.5 - 0.2 - - - - - - -
25/05:00pm 10.9 SSE 3 4 1027.4 - 0.2 - - - - - - -
25/04:30pm 11.1 SSE 4 5 1027.5 - 0.2 - - - - - - -
25/04:00pm 12.4 S 3 5 1027.6 - 0.0 - - - - - - -
25/03:30pm 11.6 SE 7 10 1027.7 - 0.0 - - - - - - -
25/03:00pm 12.4 SSE 4 9 1027.8 - 0.0 - - - - - - -
25/02:30pm 13.7 S 8 11 1027.9 - 0.0 - - - - - - -
25/02:00pm 13.7 SE 8 10 1028.0 - 0.0 - - - - - - -
25/01:30pm 13.6 SSW 6 10 1028.2 - 0.0 - - - - - - -
25/01:00pm 12.6 ESE 11 16 1028.8 - 0.0 - - - - - - -
25/12:30pm 13.2 SSE 9 13 1029.1 - 0.0 - - - - - - -
25/12:00pm 12.7 SE 8 11 1029.6 - 0.0 - - - - - - -

Other Formats:

Comma delimited format used in spreadsheet applications
http://www.bom.gov.au/fwo/IDS60701/IDS60701.94658.axf

JavaScript Object Notation format (JSON) in row-major order
http://www.bom.gov.au/fwo/IDS60701/IDS60701.94658.json